createdAt,value
2023-06-16T00:01:54.298Z,1016.7
2023-06-16T00:04:54.546Z,1016.7
2023-06-16T00:07:53.835Z,1016.6
2023-06-16T00:11:03.315Z,1016.6
2023-06-16T00:13:53.370Z,1016.6
2023-06-16T00:16:53.481Z,1016.6
2023-06-16T00:19:53.427Z,1016.6
2023-06-16T00:22:53.366Z,1016.6
2023-06-16T00:25:53.641Z,1016.6
2023-06-16T00:28:53.310Z,1016.5
2023-06-16T00:31:53.876Z,1016.6
2023-06-16T00:34:53.430Z,1016.6
2023-06-16T00:37:53.345Z,1016.6
2023-06-16T00:40:53.532Z,1016.6
2023-06-16T00:43:53.238Z,1016.6
2023-06-16T00:46:53.366Z,1016.6
2023-06-16T00:49:53.440Z,1016.6
2023-06-16T00:52:53.299Z,1016.6
2023-06-16T00:55:53.439Z,1016.6
2023-06-16T00:58:53.464Z,1016.6
2023-06-16T01:01:53.830Z,1016.5
2023-06-16T01:04:53.445Z,1016.5
2023-06-16T01:07:53.405Z,1016.5
2023-06-16T01:10:53.659Z,1016.5
2023-06-16T01:13:53.293Z,1016.5
2023-06-16T01:16:53.600Z,1016.5
2023-06-16T01:19:53.409Z,1016.5
2023-06-16T01:22:53.460Z,1016.4
2023-06-16T01:25:53.650Z,1016.4
2023-06-16T01:28:53.673Z,1016.4
2023-06-16T01:31:53.795Z,1016.4
2023-06-16T01:34:53.447Z,1016.5
2023-06-16T01:37:53.468Z,1016.4
2023-06-16T01:40:53.623Z,1016.5
2023-06-16T01:43:53.413Z,1016.5
2023-06-16T01:46:53.690Z,1016.4
2023-06-16T01:49:53.510Z,1016.4
2023-06-16T01:52:53.318Z,1016.4
2023-06-16T01:55:53.373Z,1016.4
2023-06-16T01:58:53.340Z,1016.4
2023-06-16T02:01:53.999Z,1016.4
2023-06-16T02:04:54.055Z,1016.4
2023-06-16T02:07:53.368Z,1016.4
2023-06-16T02:10:53.677Z,1016.4
2023-06-16T02:13:53.249Z,1016.4
2023-06-16T02:16:53.645Z,1016.4
2023-06-16T02:19:53.379Z,1016.4
2023-06-16T02:22:53.421Z,1016.5
2023-06-16T02:25:53.518Z,1016.4
2023-06-16T02:28:53.369Z,1016.4
2023-06-16T02:31:54.070Z,1016.4
2023-06-16T02:34:56.432Z,1016.4
2023-06-16T02:37:53.354Z,1016.4
2023-06-16T02:40:53.452Z,1016.4
2023-06-16T02:43:53.347Z,1016.4
2023-06-16T02:46:54.630Z,1016.4
2023-06-16T02:49:53.483Z,1016.4
2023-06-16T02:52:53.373Z,1016.4
2023-06-16T02:55:53.331Z,1016.3
2023-06-16T02:58:53.341Z,1016.3
2023-06-16T03:01:54.128Z,1016.3
2023-06-16T03:04:54.012Z,1016.4
2023-06-16T03:07:53.374Z,1016.4
2023-06-16T03:10:54.795Z,1016.4
2023-06-16T03:13:53.413Z,1016.4
2023-06-16T03:16:53.479Z,1016.4
2023-06-16T03:19:56.280Z,1016.4
2023-06-16T03:22:54.292Z,1016.4
2023-06-16T03:25:53.609Z,1016.4
2023-06-16T03:28:53.358Z,1016.4
2023-06-16T03:31:53.564Z,1016.4
2023-06-16T03:35:03.465Z,1016.3
2023-06-16T03:37:53.382Z,1016.3
2023-06-16T03:40:53.577Z,1016.4
2023-06-16T03:43:53.304Z,1016.3
2023-06-16T03:46:53.482Z,1016.4
2023-06-16T03:49:54.082Z,1016.4
2023-06-16T03:53:06.240Z,1016.4
2023-06-16T03:55:53.434Z,1016.4
2023-06-16T03:58:53.321Z,1016.4
2023-06-16T04:01:53.706Z,1016.4
2023-06-16T04:04:56.981Z,1016.4
2023-06-16T04:07:53.354Z,1016.5
2023-06-16T04:11:01.371Z,1016.4
2023-06-16T04:13:53.301Z,1016.4
2023-06-16T04:16:53.394Z,1016.5
2023-06-16T04:19:53.329Z,1016.4
2023-06-16T04:22:53.442Z,1016.4
2023-06-16T04:25:53.642Z,1016.4
2023-06-16T04:28:53.357Z,1016.5
2023-06-16T04:31:53.735Z,1016.5
2023-06-16T04:34:53.490Z,1016.5
2023-06-16T04:37:53.360Z,1016.4
2023-06-16T04:40:55.808Z,1016.4
2023-06-16T04:43:53.325Z,1016.4
2023-06-16T04:46:53.682Z,1016.5
2023-06-16T04:49:53.462Z,1016.4
2023-06-16T04:52:53.309Z,1016.4
2023-06-16T04:55:53.390Z,1016.5
2023-06-16T04:58:53.357Z,1016.5
2023-06-16T05:01:53.622Z,1016.5
2023-06-16T05:04:53.792Z,1016.5
2023-06-16T05:07:53.410Z,1016.5
2023-06-16T05:10:53.599Z,1016.5
2023-06-16T05:13:53.377Z,1016.5
2023-06-16T05:16:56.329Z,1016.5
2023-06-16T05:19:54.003Z,1016.5
2023-06-16T05:22:53.369Z,1016.5
2023-06-16T05:25:53.733Z,1016.5
2023-06-16T05:28:53.370Z,1016.5
2023-06-16T05:31:55.862Z,1016.6
2023-06-16T05:34:53.428Z,1016.6
2023-06-16T05:37:53.295Z,1016.6
2023-06-16T05:40:53.775Z,1016.7
2023-06-16T05:43:53.460Z,1016.7
2023-06-16T05:46:53.347Z,1016.7
2023-06-16T05:49:53.421Z,1016.8
2023-06-16T05:52:53.305Z,1016.8
2023-06-16T05:55:53.504Z,1016.8
2023-06-16T05:58:53.295Z,1016.7
2023-06-16T06:01:53.551Z,1016.8
2023-06-16T06:04:54.752Z,1016.8
2023-06-16T06:07:53.334Z,1016.8
2023-06-16T06:10:55.633Z,1016.9
2023-06-16T06:13:53.441Z,1016.8
2023-06-16T06:16:53.794Z,1016.9
2023-06-16T06:19:53.719Z,1016.9
2023-06-16T06:22:53.331Z,1016.9
2023-06-16T06:25:53.735Z,1016.9
2023-06-16T06:28:53.332Z,1016.9
2023-06-16T06:31:53.626Z,1016.9
2023-06-16T06:34:53.397Z,1017.0
2023-06-16T06:37:53.310Z,1017.0
2023-06-16T06:40:54.124Z,1017.0
2023-06-16T06:43:53.342Z,1017.0
2023-06-16T06:46:53.733Z,1017.0
2023-06-16T06:49:53.395Z,1017.1
2023-06-16T06:52:53.395Z,1017.1
2023-06-16T06:55:53.335Z,1017.1
2023-06-16T06:58:53.468Z,1017.1
2023-06-16T07:01:55.284Z,1017.1
2023-06-16T07:04:54.114Z,1017.1
2023-06-16T07:07:53.435Z,1017.0
2023-06-16T07:11:03.224Z,1017.1
2023-06-16T07:13:53.392Z,1017.1
2023-06-16T07:16:53.749Z,1017.1
2023-06-16T07:19:53.434Z,1017.1
2023-06-16T07:22:53.327Z,1017.1
2023-06-16T07:25:53.425Z,1017.1
2023-06-16T07:28:53.329Z,1017.1
2023-06-16T07:31:53.702Z,1017.1
2023-06-16T07:34:53.961Z,1017.1
2023-06-16T07:37:53.294Z,1017.1
2023-06-16T07:40:54.711Z,1017.1
2023-06-16T07:43:53.406Z,1017.1
2023-06-16T07:46:53.748Z,1017.1
2023-06-16T07:49:53.417Z,1017.1
2023-06-16T07:52:53.355Z,1017.1
2023-06-16T07:55:53.384Z,1017.1
2023-06-16T07:58:53.314Z,1017.1
2023-06-16T08:01:53.724Z,1017.1
2023-06-16T08:04:54.710Z,1017.0
2023-06-16T08:07:53.517Z,1017.0
2023-06-16T08:10:54.784Z,1017.0
2023-06-16T08:13:53.505Z,1017.0
2023-06-16T08:16:53.540Z,1017.0
2023-06-16T08:19:53.493Z,1017.0
2023-06-16T08:22:53.344Z,1016.9
2023-06-16T08:25:53.805Z,1016.9
2023-06-16T08:28:53.286Z,1016.9
2023-06-16T08:31:53.830Z,1016.9
2023-06-16T08:34:53.470Z,1016.9
2023-06-16T08:38:03.391Z,1016.9
2023-06-16T08:40:53.673Z,1016.9
2023-06-16T08:43:53.362Z,1016.8
2023-06-16T08:46:53.600Z,1016.8
2023-06-16T08:49:53.886Z,1016.7
2023-06-16T08:53:03.321Z,1016.8
2023-06-16T08:55:53.318Z,1016.8
2023-06-16T08:58:53.993Z,1016.8
2023-06-16T09:01:53.886Z,1016.8
2023-06-16T09:04:54.305Z,1016.8
2023-06-16T09:07:53.401Z,1016.8
2023-06-16T09:10:54.235Z,1016.8
2023-06-16T09:13:53.476Z,1016.8
2023-06-16T09:16:53.591Z,1016.8
2023-06-16T09:19:53.414Z,1016.8
2023-06-16T09:22:59.895Z,1016.8
2023-06-16T09:25:56.036Z,1016.8
2023-06-16T09:28:53.451Z,1016.8
2023-06-16T09:32:03.399Z,1016.7
2023-06-16T09:34:53.340Z,1016.8
2023-06-16T09:37:53.340Z,1016.8
2023-06-16T09:40:53.665Z,1016.8
2023-06-16T09:43:53.414Z,1016.8
2023-06-16T09:46:53.664Z,1016.8
2023-06-16T09:49:53.410Z,1016.7
2023-06-16T09:52:53.377Z,1016.7
2023-06-16T09:55:53.393Z,1016.7
2023-06-16T09:59:02.496Z,1016.7
2023-06-16T10:01:53.698Z,1016.7
2023-06-16T10:04:54.989Z,1016.6
2023-06-16T10:07:53.426Z,1016.6
2023-06-16T10:11:03.429Z,1016.5
2023-06-16T10:13:53.532Z,1016.5
2023-06-16T10:16:53.347Z,1016.5
2023-06-16T10:19:57.030Z,1016.5
2023-06-16T10:22:53.426Z,1016.6
2023-06-16T10:25:53.696Z,1016.5
2023-06-16T10:28:53.488Z,1016.5
2023-06-16T10:31:53.435Z,1016.5
2023-06-16T10:34:53.374Z,1016.5
2023-06-16T10:38:03.256Z,1016.5
2023-06-16T10:40:54.829Z,1016.4
2023-06-16T10:43:53.524Z,1016.3
2023-06-16T10:46:53.771Z,1016.3
2023-06-16T10:49:53.720Z,1016.3
2023-06-16T10:52:56.003Z,1016.3
2023-06-16T10:55:53.390Z,1016.3
2023-06-16T10:59:05.718Z,1016.3
2023-06-16T11:01:53.643Z,1016.3
2023-06-16T11:04:55.327Z,1016.3
2023-06-16T11:08:07.828Z,1016.2
2023-06-16T11:10:53.570Z,1016.2
2023-06-16T11:13:53.370Z,1016.2
2023-06-16T11:16:53.821Z,1016.3
2023-06-16T11:19:53.375Z,1016.2
2023-06-16T11:22:53.372Z,1016.2
2023-06-16T11:25:53.741Z,1016.1
2023-06-16T11:28:53.325Z,1016.1
2023-06-16T11:31:53.774Z,1016.1
2023-06-16T11:34:53.881Z,1016.1
2023-06-16T11:37:55.685Z,1016.1
2023-06-16T11:41:02.998Z,1016.2
2023-06-16T11:43:56.792Z,1016.2
2023-06-16T11:46:53.569Z,1016.1
2023-06-16T11:49:55.205Z,1016.1
2023-06-16T11:52:53.347Z,1016.1
2023-06-16T11:55:53.262Z,1016.1
2023-06-16T11:58:53.278Z,1016.1
2023-06-16T12:01:53.883Z,1016.0
2023-06-16T12:05:03.591Z,1016.0
2023-06-16T12:07:54.426Z,1016.0
2023-06-16T12:10:53.894Z,1015.9
2023-06-16T12:13:53.355Z,1016.0
2023-06-16T12:16:54.859Z,1016.0
2023-06-16T12:19:53.493Z,1016.0
2023-06-16T12:22:53.386Z,1015.9
2023-06-16T12:25:53.870Z,1015.8
2023-06-16T12:28:53.497Z,1015.9
2023-06-16T12:31:53.773Z,1015.8
2023-06-16T12:34:53.696Z,1015.8
2023-06-16T12:37:53.339Z,1015.8
2023-06-16T12:40:53.727Z,1015.8
2023-06-16T12:43:53.402Z,1015.8
2023-06-16T12:46:53.634Z,1015.8
2023-06-16T12:49:53.517Z,1015.8
2023-06-16T12:52:53.418Z,1015.8
2023-06-16T12:55:53.442Z,1015.8
2023-06-16T12:58:53.401Z,1015.6
2023-06-16T13:01:53.720Z,1015.6
2023-06-16T13:04:53.898Z,1015.6
2023-06-16T13:07:53.391Z,1015.6
2023-06-16T13:10:53.693Z,1015.6
2023-06-16T13:13:53.434Z,1015.6
2023-06-16T13:16:55.546Z,1015.6
2023-06-16T13:19:53.482Z,1015.6
2023-06-16T13:22:53.420Z,1015.5
2023-06-16T13:25:53.656Z,1015.5
2023-06-16T13:28:53.252Z,1015.5
2023-06-16T13:31:53.581Z,1015.4
2023-06-16T13:34:53.423Z,1015.4
2023-06-16T13:37:53.312Z,1015.4
2023-06-16T13:40:53.753Z,1015.4
2023-06-16T13:43:53.359Z,1015.4
2023-06-16T13:46:53.428Z,1015.3
2023-06-16T13:49:53.744Z,1015.4
2023-06-16T13:52:53.376Z,1015.3
2023-06-16T13:55:54.974Z,1015.3
2023-06-16T13:58:53.311Z,1015.2
2023-06-16T14:01:53.892Z,1015.2
2023-06-16T14:04:53.674Z,1015.3
2023-06-16T14:07:53.448Z,1015.3
2023-06-16T14:10:53.729Z,1015.2
2023-06-16T14:13:53.405Z,1015.2
2023-06-16T14:16:53.776Z,1015.2
2023-06-16T14:19:54.390Z,1015.2
2023-06-16T14:22:53.361Z,1015.2
2023-06-16T14:25:53.540Z,1015.2
2023-06-16T14:28:53.261Z,1015.2
2023-06-16T14:31:53.706Z,1015.2
2023-06-16T14:34:53.543Z,1015.2
2023-06-16T14:37:53.314Z,1015.2
2023-06-16T14:40:53.726Z,1015.2
2023-06-16T14:43:53.370Z,1015.1
2023-06-16T14:46:53.641Z,1015.1
2023-06-16T14:49:53.465Z,1015.2
2023-06-16T14:52:53.369Z,1015.1
2023-06-16T14:55:53.481Z,1015.1
2023-06-16T14:58:53.400Z,1015.0
2023-06-16T15:01:56.665Z,1015.1
2023-06-16T15:04:54.073Z,1015.1
2023-06-16T15:07:53.746Z,1015.1
2023-06-16T15:10:53.737Z,1015.0
2023-06-16T15:13:53.495Z,1015.0
2023-06-16T15:16:54.858Z,1015.0
2023-06-16T15:19:53.494Z,1015.0
2023-06-16T15:22:53.393Z,1015.0
2023-06-16T15:25:53.692Z,1014.9
2023-06-16T15:29:01.847Z,1014.9
2023-06-16T15:31:53.547Z,1014.9
2023-06-16T15:34:53.498Z,1014.8
2023-06-16T15:37:53.720Z,1014.9
2023-06-16T15:40:53.719Z,1014.9
2023-06-16T15:43:53.325Z,1014.9
2023-06-16T15:46:53.439Z,1014.8
2023-06-16T15:49:54.892Z,1014.9
2023-06-16T15:52:53.380Z,1014.9
2023-06-16T15:55:53.351Z,1014.9
2023-06-16T15:58:53.333Z,1014.9
2023-06-16T16:01:54.037Z,1014.8
2023-06-16T16:04:54.438Z,1014.9
2023-06-16T16:07:53.418Z,1014.9
2023-06-16T16:10:53.752Z,1014.9
2023-06-16T16:13:53.350Z,1014.8
2023-06-16T16:16:56.810Z,1014.8
2023-06-16T16:19:53.454Z,1014.8
2023-06-16T16:22:56.303Z,1014.9
2023-06-16T16:25:53.692Z,1014.7
2023-06-16T16:28:53.371Z,1014.8
2023-06-16T16:31:53.963Z,1014.8
2023-06-16T16:34:53.379Z,1014.8
2023-06-16T16:37:53.273Z,1014.8
2023-06-16T16:40:53.758Z,1014.8
2023-06-16T16:43:55.653Z,1014.8
2023-06-16T16:46:53.645Z,1014.8
2023-06-16T16:49:53.379Z,1014.7
2023-06-16T16:52:53.313Z,1014.7
2023-06-16T16:56:05.388Z,1014.7
2023-06-16T16:58:53.683Z,1014.7
2023-06-16T17:01:55.989Z,1014.7
2023-06-16T17:04:53.545Z,1014.8
2023-06-16T17:07:56.412Z,1014.7
2023-06-16T17:10:53.632Z,1014.7
2023-06-16T17:13:55.803Z,1014.8
2023-06-16T17:16:53.784Z,1014.8
2023-06-16T17:19:56.321Z,1014.8
2023-06-16T17:22:53.359Z,1014.8
2023-06-16T17:25:53.588Z,1014.8
2023-06-16T17:29:04.693Z,1014.7
2023-06-16T17:31:53.501Z,1014.7
2023-06-16T17:34:54.195Z,1014.7
2023-06-16T17:37:53.398Z,1014.8
2023-06-16T17:40:53.796Z,1014.7
2023-06-16T17:43:53.338Z,1014.7
2023-06-16T17:46:53.485Z,1014.8
2023-06-16T17:49:53.704Z,1014.8
2023-06-16T17:52:53.377Z,1014.7
2023-06-16T17:55:53.377Z,1014.7
2023-06-16T17:58:53.368Z,1014.7
2023-06-16T18:01:54.336Z,1014.7
2023-06-16T18:04:53.908Z,1014.7
2023-06-16T18:07:53.368Z,1014.8
2023-06-16T18:10:56.561Z,1014.8
2023-06-16T18:13:53.347Z,1014.8
2023-06-16T18:16:53.607Z,1014.8
2023-06-16T18:19:53.638Z,1014.8
2023-06-16T18:22:53.573Z,1014.8
2023-06-16T18:25:53.580Z,1014.9
2023-06-16T18:28:55.730Z,1014.8
2023-06-16T18:31:53.526Z,1014.8
2023-06-16T18:34:53.420Z,1014.8
2023-06-16T18:37:53.313Z,1014.9
2023-06-16T18:40:53.758Z,1014.8
2023-06-16T18:43:53.392Z,1014.9
2023-06-16T18:46:53.442Z,1014.9
2023-06-16T18:49:55.269Z,1014.8
2023-06-16T18:52:53.306Z,1014.9
2023-06-16T18:55:53.323Z,1014.9
2023-06-16T18:58:53.323Z,1014.8
2023-06-16T19:01:53.532Z,1014.8
2023-06-16T19:04:53.998Z,1014.8
2023-06-16T19:07:53.508Z,1014.8
2023-06-16T19:10:53.696Z,1014.8
2023-06-16T19:13:53.713Z,1014.8
2023-06-16T19:16:53.553Z,1014.8
2023-06-16T19:19:53.368Z,1014.8
2023-06-16T19:22:53.373Z,1014.8
2023-06-16T19:25:53.555Z,1014.8
2023-06-16T19:28:53.542Z,1014.8
2023-06-16T19:31:53.389Z,1014.8
2023-06-16T19:34:53.985Z,1014.8
2023-06-16T19:37:53.451Z,1014.8
2023-06-16T19:40:53.694Z,1014.8
2023-06-16T19:43:53.413Z,1014.9
2023-06-16T19:46:53.525Z,1014.8
2023-06-16T19:49:53.352Z,1014.9
2023-06-16T19:52:53.338Z,1014.9
2023-06-16T19:56:03.193Z,1014.9
2023-06-16T19:58:53.367Z,1014.9
2023-06-16T20:01:53.677Z,1015.0
2023-06-16T20:04:53.549Z,1015.0
2023-06-16T20:07:53.303Z,1015.0
2023-06-16T20:10:53.740Z,1015.0
2023-06-16T20:13:53.390Z,1015.0
2023-06-16T20:16:53.558Z,1015.0
2023-06-16T20:20:06.645Z,1015.0
2023-06-16T20:22:53.329Z,1015.1
2023-06-16T20:25:53.637Z,1015.1
2023-06-16T20:28:53.318Z,1015.1
2023-06-16T20:31:53.877Z,1015.1
2023-06-16T20:34:53.369Z,1015.1
2023-06-16T20:37:53.560Z,1015.1
2023-06-16T20:40:54.519Z,1015.1
2023-06-16T20:43:53.791Z,1015.1
2023-06-16T20:46:53.634Z,1015.1
2023-06-16T20:49:54.327Z,1015.1
2023-06-16T20:52:53.321Z,1015.1
2023-06-16T20:55:53.375Z,1015.1
2023-06-16T20:58:53.556Z,1015.1
2023-06-16T21:01:54.862Z,1015.1
2023-06-16T21:10:53.876Z,1015.0
2023-06-16T21:13:53.427Z,1015.0
2023-06-16T21:16:53.624Z,1015.0
2023-06-16T21:20:13.386Z,1015.0
2023-06-16T21:22:53.279Z,1015.0
2023-06-16T21:25:53.709Z,1015.0
2023-06-16T21:28:53.412Z,1015.0
2023-06-16T21:31:53.289Z,1015.0
2023-06-16T21:34:53.474Z,1015.0
2023-06-16T21:37:53.322Z,1015.0
2023-06-16T21:40:53.936Z,1014.9
2023-06-16T21:43:53.552Z,1014.9
2023-06-16T21:46:53.513Z,1014.9
2023-06-16T21:49:53.239Z,1014.9
2023-06-16T21:52:53.333Z,1014.8
2023-06-16T21:55:53.633Z,1014.8
2023-06-16T21:58:53.336Z,1014.8
2023-06-16T22:01:53.466Z,1014.8
2023-06-16T22:04:55.648Z,1014.8
2023-06-16T22:07:53.422Z,1014.7
2023-06-16T22:10:53.827Z,1014.7
2023-06-16T22:13:53.367Z,1014.7
2023-06-16T22:16:53.672Z,1014.7
2023-06-16T22:19:57.725Z,1014.8
2023-06-16T22:22:53.410Z,1014.8
2023-06-16T22:25:53.479Z,1014.7
2023-06-16T22:29:03.237Z,1014.7
2023-06-16T22:31:54.107Z,1014.6
2023-06-16T22:34:53.325Z,1014.6
2023-06-16T22:37:53.391Z,1014.6
2023-06-16T22:40:53.837Z,1014.6
2023-06-16T22:43:53.251Z,1014.6
2023-06-16T22:46:53.686Z,1014.6
2023-06-16T22:49:53.458Z,1014.6
2023-06-16T22:52:53.291Z,1014.6
2023-06-16T22:55:53.361Z,1014.6
2023-06-16T22:58:53.312Z,1014.6
2023-06-16T23:01:53.727Z,1014.5
2023-06-16T23:04:54.145Z,1014.6
2023-06-16T23:07:53.363Z,1014.6
2023-06-16T23:10:54.136Z,1014.5
2023-06-16T23:13:53.292Z,1014.5
2023-06-16T23:16:53.738Z,1014.5
2023-06-16T23:19:53.636Z,1014.5
2023-06-16T23:22:53.330Z,1014.5
2023-06-16T23:25:53.586Z,1014.5
2023-06-16T23:28:53.397Z,1014.5
2023-06-16T23:31:53.424Z,1014.5
2023-06-16T23:34:53.516Z,1014.5
2023-06-16T23:37:53.339Z,1014.5
2023-06-16T23:40:53.767Z,1014.5
2023-06-16T23:43:53.379Z,1014.5
2023-06-16T23:46:53.645Z,1014.4
2023-06-16T23:49:53.403Z,1014.4
2023-06-16T23:52:53.650Z,1014.4
2023-06-16T23:55:53.263Z,1014.4
2023-06-16T23:58:53.355Z,1014.4
